Alpha, California Weather observations

Data are for observation ending at time listed.
 Day   Time    Ave.   Ave.  Ave.  Vector   Max.   Stn.    Total    Solar   Ave.   Snow 
  of    of     Air    Rel.  Wind   Wind    Wind   Baro.  Precip.   Rad.    Soil   Depth
Year   Day     Temp.  Hum.  Speed  Dir.    Gust   Pres.                    Temp.       
2015   (PST)    F      %     mph   deg.    mph     mb.     in.     W/m2     F      in. 
---------------------------------------------------------------------------------------  
 241   15:40   58.1    66    4.6   229     11.8   789.1    0.00     251    999.0  102.7
 241   15:50   57.5    66    4.7   219     14.0   789.1    0.00      63    999.0  146.8
 241   16:00   55.7    72    4.7   206     11.0   789.0    0.00      41    999.0  131.2
 241   16:10   55.7    73    3.7   235     10.5   789.0    0.00      72    999.0   12.6
 241   16:20   56.3    71    4.7   238     13.7   788.9    0.00     102    999.0   12.6
 241   16:30   57.0    67    5.3   217     12.9   788.9    0.00      93    999.0   27.6
 241   16:40   56.2    69    4.0   238     12.1   788.9    0.00      83    999.0   42.2
 241   16:50   56.6    67    4.9   232     16.1   788.8    0.00      87    999.0   12.1
 241   17:00   56.2    66    4.3   236     10.7   788.9    0.00      64    999.0  132.7
 241   17:10   56.1    65    4.4   220     10.0   788.9    0.00      63    999.0   87.1
 241   17:20   56.0    69    4.5   231     10.2   788.9    0.00      64    999.0  161.8
 241   17:30   55.9    70    3.6   224      8.3   788.8    0.00      56    999.0   71.5
 241   17:40   55.9    73    3.1   237      6.1   788.8    0.00      86    999.0   12.4
 241   17:50   55.7    74    3.7   245      9.2   788.8    0.00      66    999.0   12.1
 241   18:00   54.4    77    3.4   235      6.6   788.8    0.00      36    999.0   12.8
 241   18:10   53.3    81    2.9   257      7.9   788.8    0.00      20    999.0  161.6
 241   18:20   52.5    82    3.1   235      7.5   788.7    0.00      11    999.0  162.1
 241   18:30   51.5    86    2.7   256      6.5   788.7    0.00       6    999.0  162.2
 241   18:40   51.1    87    2.2   249      7.2   788.7    0.00       2    999.0   56.7
 241   18:50   50.5    89    2.5   244      8.5   788.7    0.00       0    999.0   13.8
 241   19:00   50.0    90    2.3   237      6.3   788.7    0.00       0    999.0   71.5
 241   19:10   49.5    91    2.8   212      7.7   788.6    0.00       0    999.0   13.2
 241   19:20   49.2    92    2.1   232      6.1   788.7    0.00       0    999.0   72.9
 241   19:30   49.4    93    3.3   233      9.4   788.8    0.00       0    999.0  162.1
 241   19:40   49.3    93    2.8   227      7.6   788.8    0.00       0    999.0  161.2
 241   19:50   49.2    93    2.0   214      5.2   788.9    0.00       0    999.0   13.0
 241   20:00   48.9    93    1.8   218      5.6   788.9    0.00       0    999.0   41.9
 241   20:10   48.7    93    4.3   198      9.5   788.9    0.00       0    999.0   42.4
 241   20:20   48.7    92    7.4   179     12.6   788.9    0.00       0    999.0   28.1
 241   20:30   48.8    91    8.7   176     13.1   788.9    0.00       0    999.0   13.4
 241   20:40   48.8    90    8.4   177     13.4   788.8    0.00       0    999.0   13.2
 241   20:50   48.7    91    7.3   179     11.8   788.8    0.00       0    999.0   13.2
 241   21:00   48.6    91    6.3   187     10.1   788.8    0.00       0    999.0   13.8
 241   21:10   48.6    90    6.2   180      9.9   788.7    0.00       0    999.0   13.7
 241   21:20   48.5    90    5.9   188     10.5   788.7    0.00       0    999.0   13.4
 241   21:30   48.4    90    5.4   190      7.9   788.7    0.00       0    999.0   13.3
 241   21:40   48.2    90    4.7   189      7.5   788.7    0.00       0    999.0   13.2
 241   21:50   48.4    90    6.2   186     12.1   788.5    0.00       0    999.0   13.6
 241   22:00   48.4    90    6.0   189      9.1   788.6    0.00       0    999.0   13.9
 241   22:10   48.3    90    6.9   181     11.2   788.5    0.00       0    999.0   14.2
 241   22:20   48.4    89    7.0   180     10.8   788.4    0.00       0    999.0   14.1
 241   22:30   48.4    88    7.6   177     12.6   788.3    0.00       0    999.0   14.2
 241   22:40   48.3    87    7.2   171     11.2   788.3    0.00       0    999.0   14.2
 241   22:50   48.3    86    7.1   169     13.2   788.3    0.00       0    999.0   14.2
 241   23:00   48.2    84    6.6   172     10.9   788.3    0.00       0    999.0   14.3
 241   23:10   48.3    82    7.0   173     11.2   788.4    0.00       0    999.0   14.1
 241   23:20   48.1    83    7.4   170     11.0   788.3    0.00       0    999.0   14.1
 241   23:30   48.2    83    7.0   178     12.1   788.4    0.00       0    999.0   12.2
 241   23:40   48.2    82    8.2   178     11.9   788.4    0.00       0    999.0   11.1
 241   23:50   48.1    82    7.3   178     10.6   788.4    0.00       0    999.0   14.1
 242    0:00   48.1    82    7.8   174     11.4   788.3    0.00       0    999.0   14.4
 242    0:10   48.2    83    8.3   175     15.3   788.3    0.00       0    999.0   13.3
 242    0:20   48.5    82    7.6   183     14.8   788.3    0.00       0    999.0   13.6
 242    0:30   48.6    83    7.8   183     12.6   788.3    0.00       0    999.0   14.1
 242    0:40   48.8    83    7.4   184     11.3   788.3    0.00       0    999.0   14.0
 242    0:50   48.6    85    6.9   186     11.6   788.2    0.00       0    999.0   13.9
 242    1:00   48.5    86    5.7   186     14.2   788.2    0.00       0    999.0   14.2
 242    1:10   48.6    87    5.0   193     12.1   788.2    0.00       0    999.0   14.9
 242    1:20   48.9    87    4.1   198     10.1   788.2    0.00       0    999.0   14.6
 242    1:30   49.1    87    3.6   198      8.0   788.2    0.00       0    999.0   14.2
 242    1:40   49.0    88    3.4   200      6.6   788.1    0.00       0    999.0   13.8
 242    1:50   48.9    88    2.9   200      8.3   788.2    0.00       0    999.0   13.6
 242    2:00   48.9    89    2.8   210      8.3   788.2    0.00       0    999.0   13.0
 242    2:10   49.0    89    3.1   201      7.3   788.2    0.00       0    999.0   12.5
 242    2:20   48.9    89    4.9   195     10.1   788.2    0.00       0    999.0   12.5
 242    2:30   48.8    90    4.7   196     10.7   788.2    0.00       0    999.0   10.9
 242    2:40   48.7    90    3.9   202      8.0   788.2    0.00       0    999.0   10.1
 242    2:50   48.7    90    3.5   198      9.8   788.2    0.00       0    999.0   10.3
 242    3:00   48.7    90    5.7   186     10.2   788.2    0.00       0    999.0   10.2
 242    3:10   48.7    90    6.4   182     10.4   788.1    0.00       0    999.0    9.7
 242    3:20   48.8    91    5.8   187     11.0   788.2    0.00       0    999.0    9.2
 242    3:30   49.0    91    5.2   194     11.6   788.2    0.00       0    999.0    9.6
 242    3:40   48.8    91    6.0   181      9.1   788.1    0.00       0    999.0    9.5
 242    3:50   48.8    91    4.4   195      9.1   788.2    0.00       0    999.0   11.1
 242    4:00   48.8    91    4.7   192      8.3   788.1    0.00       0    999.0   12.8
 242    4:10   48.8    91    4.2   190     10.6   788.2    0.00       0    999.0   13.8
 242    4:20   48.8    91    5.2   188     10.4   788.1    0.00       0    999.0   13.9
 242    4:30   48.8    91    5.3   181     10.3   788.1    0.00       0    999.0   14.1
 242    4:40   48.7    92    6.1   179     11.8   788.1    0.00       0    999.0   14.2
 242    4:50   48.8    92    7.7   180     11.9   788.0    0.00       0    999.0   14.1
 242    5:00   48.8    91    7.5   176     12.9   788.0    0.00       0    999.0   11.4
 242    5:10   48.7    91    7.9   180     12.1   788.0    0.00       0    999.0   13.0
 242    5:20   48.6    90    6.7   177     10.2   788.1    0.00       0    999.0   13.0
 242    5:30   48.8    90    6.5   177     11.5   788.1    0.00       1    999.0   13.5
 242    5:40   48.8    89    7.1   177     11.3   788.3    0.00       2    999.0   13.4
 242    5:50   48.8    90    6.0   178      8.9   788.3    0.00       3    999.0   13.4
 242    6:00   48.8    90    6.2   178      9.9   788.4    0.00       5    999.0   13.5
 242    6:10   48.9    90    7.4   180     12.9   788.5    0.00      10    999.0   13.3
 242    6:20   49.4    88    8.5   181     16.2   788.6    0.00      51    999.0   11.9
 242    6:30   49.4    87    9.9   177     16.7   788.7    0.00      35    999.0   10.7
 242    6:40   49.0    87    9.9   177     15.6   788.7    0.00      17    999.0   11.1
 242    6:50   48.9    88    9.0   174     13.7   788.7    0.00      23    999.0   12.4
 242    7:00   49.1    88    8.2   176     14.3   788.8    0.00      42    999.0   10.7
 242    7:10   49.9    86   10.0   173     17.1   788.7    0.00     110    999.0   10.9
 242    7:20   50.8    84    9.8   169     15.1   788.8    0.00      83    999.0   13.7
 242    7:30   51.3    83    9.0   178     13.8   788.8    0.00     177    999.0   13.9
 242    7:40   52.2    80    8.9   180     14.1   788.9    0.00     251    999.0   12.7
 242    7:50   53.2    77    8.9   183     14.9   788.9    0.00     299    999.0   12.8
 242    8:00   53.3    75   10.8   179     16.4   788.9    0.00     295    999.0   12.8
 242    8:10   53.9    73   10.6   180     15.9   788.9    0.00     334    999.0   13.0
 242    8:20   54.6    71   10.0   182     18.1   788.9    0.00     361    999.0   12.8
 242    8:30   55.1    69    8.7   188     15.3   788.9    0.00     384    999.0   11.7
 242    8:40   55.6    68    6.5   199     15.9   789.0    0.00     405    999.0   12.2
 242    8:50   56.2    65    7.6   195     16.4   789.1    0.00     428    999.0  132.6
 242    9:00   56.6    62    6.5   199     16.8   789.2    0.00     386    999.0  147.0
 242    9:10   56.9    62    6.0   200     14.1   789.2    0.00     465    999.0  162.0
 242    9:20   58.5    59    4.2   214     11.0   789.3    0.00     492    999.0  162.0
 242    9:30   58.2    56    4.8   213     17.2   789.4    0.00     414    999.0  162.0
 242    9:40   58.5    55    4.7   222     12.3   789.5    0.00     515    999.0  162.0
 242    9:50   59.0    54    4.5   222      9.4   789.5    0.00     546    999.0  162.0
 242   10:00   58.9    54    3.9   233     10.7   789.6    0.00     552    999.0  161.9
 242   10:10   59.3    51    3.9   220      9.8   789.6    0.00     563    999.0  161.9
 242   10:20   59.3    51    4.1   225     12.1   789.6    0.00     574    999.0  162.1
 242   10:30   59.3    48    4.0   225      9.3   789.6    0.00     585    999.0  162.0
 242   10:40   59.7    43    4.9   234     14.4   789.5    0.00     599    999.0  161.7
 242   10:50   59.3    46    5.6   226     13.6   789.5    0.00     609    999.0  161.9
 242   11:00   60.1    43    4.1   235      9.8   789.6    0.00     619    999.0  162.0
 242   11:10   60.0    48    4.6   223     11.9   789.6    0.00     627    999.0  162.0
 242   11:20   60.3    49    4.5   232     11.8   789.5    0.00     633    999.0  102.5
 242   11:30   61.1    46    5.9   205     13.6   789.5    0.00     639    999.0  161.7
 242   11:40   62.2    43    6.7   204     16.1   789.4    0.00     653    999.0  161.9
 242   11:50   62.5    40    5.0   210     13.3   789.5    0.00     647    999.0  161.8
 242   12:00   62.5    41    6.6   206     18.2   789.5    0.00     658    999.0  161.9
 242   12:10   62.3    42    5.1   213     12.1   789.5    0.00     640    999.0  161.8
 242   12:20   62.1    41    3.8   242      9.6   789.4    0.00     638    999.0  161.8
 242   12:30   61.8    40    3.7   253     11.5   789.4    0.00     635    999.0  161.9
 242   12:40   62.2    39    3.2   276      8.0   789.5    0.00     631    999.0  116.9
 242   12:50   62.5    39    3.3   252     10.2   789.5    0.00     623    999.0   42.0
 242   13:00   62.4    35    4.6   249     11.3   789.5    0.00     621    999.0   12.8
 242   13:10   62.0    36    2.8   283      9.4   789.6    0.00     608    999.0   12.9
 242   13:20   61.8    36    3.2   268     10.4   789.5    0.00     592    999.0   12.8
 242   13:30   61.6    36    2.7   266      8.7   789.5    0.00     580    999.0   13.0
 242   13:40   62.0    35    2.5   251      6.6   789.4    0.00     567    999.0   13.1
 242   13:50   62.4    36    4.1   245     11.0   789.4    0.00     555    999.0   12.6
 242   14:00   62.7    35    3.5   230      8.6   789.3    0.00     540    999.0   12.8
 242   14:10   62.4    36    3.6   262     10.9   789.3    0.00     527    999.0   85.2
 242   14:20   62.0    36    3.9   223     11.5   789.2    0.00     513    999.0  157.8
 242   14:30   62.1    36    1.9   278      7.9   789.2    0.00     494    999.0  142.6
 242   14:40   62.2    36    3.2   249      8.6   789.1    0.00     476    999.0   28.3
 242   14:50   60.9    37    3.6   260      9.6   789.0    0.00     457    999.0  129.8
 242   15:00   60.7    38    2.6   261      7.7   789.0    0.00     436    999.0  161.4
 242   15:10   61.2    38    2.9   301      7.4   788.9    0.00     250    999.0  161.4
 242   15:20   60.7    39    2.5   270      7.1   788.9    0.00      74    999.0  160.7
 242   15:30   60.9    39    2.8   271      6.5   788.9    0.00     166    999.0   28.0

Return to Alpha graphs page.


Western Regional Climate Center,wrcc@dri.edu